Timeline UpdatesTrip UpdatesNews PostsPvt Posts♥♥Travel TipsAdmin PostsConv PostsFollowed PostsChat RequestsBlog PostsPNR Posts

Disclaimer
Search
 
 
Fri Dec 19, 2014 01:46:40 ISTHomeTrainsΣChainsAtlasPNRForumGalleryNewsFAQTripsMembersLoginFeedback
No Recent News for this Train
Other Trains in the News **new
Latest...
⇐ Return Journey: Train# 14235

14236/Bareilly - Varanasi Express

Time-Table HAS CHANGED.
Oct 27 2014 (10:48AM)
Change Departure Station:
Change Arrival Station:
Post a Train Travel TipPost a Train Travel Tip **new
Post a Comment/Question/Picture/VideoPost a Comment/Question/Picture/Video
Pantry/Catering
✕ NO Pantry Car
✕ NO Catering
RSA - Rake Sharing
Rake/Coach Composition
LOCO-SLR-GS1-GS2-B1-S5-S4-S3-S2-S1-GS3-GS4-SLR. Blog# 943920.
Loco
News    PNR    Forum    Time-Table    Availability    Fare Chart    Map    Arr/Dep History    Trips    Gallery    ΣChains    X/O    Timeline    
Travel Time: 14h 30m    38 halts    Distance: 523 km    Avg Speed: 36 km/hr
Type: Mail/Express
Zone: NR/Northern
Departs @ 16:20 (Avg 1h 19m late)
Platform# ???
SMTWTFS
Bilpur/BLPU 
Arrives @ 06:50 +1 night (Avg 2h 4m late)
Platform# 8
SMTWTFS
Varanasi Junction/BSB 

38 halts. 78 intermediate Stations between Bilpur and Varanasi Junction

Show ALL intermediate Stations  Show Old Time-Table

#TrkCodeStation NameX/OArrivesAvgDepartsAvgHaltPFDay#KmSpeedElevZoneAddress
1/==/BEBareilly Junction (4)  -15:35+4431-35.457174mNRBareilly, Uttar Pradesh
2/==/RYSRasuriya  15:46+1:0715:48+1:112m--1-25.063174mNRNH 24, Uttar Pradesh
3/==/PMRPitambarpur (3)  15:57+1:1215:59+1:132m--1-15.657171mNRPitambarpur, Uttar Pradesh
4/==/TSATisua  16:08+1:1616:10+1:172m--1-7.053165mNRNational Highway 24, Uttar Pradesh
5/==/BLPUBilpur»  16:18+1:1616:20+1:192m--10.054161mNRFatehganj, Uttar Pradesh
6/==/MKMiranpur Katra  16:28+1:2016:30+1:202m--17.258162mNRShahjahanpur, Uttar Pradesh
7/==/TLHTilhar  16:42 16:40+1:1916:44 16:42+1:232m--116.965163mNRTilhar, Uttar Pradesh
8/==/BTRABanthraX  16:53 16:51+1:2616:55 16:53+1:282m--126.734154mNRNH 24, Uttar Pradesh
9/==/SPNShahjahanpur Junction (5)X  17:07 17:08+1:1317:12 17:13+1:155m1135.055156mNRShahjahanpur, Uttar Pradesh
10/=-|ROZARoza Junction (4)X  17:20 17:21+1:2517:22 17:23+1:262m--142.451156mNRShahjahanpur, Uttar Pradesh
11/==/KHKahiliyaX  17:33+1:2517:35+1:322m--150.964152mNRSH 25, Uttar Pradesh
12/==/AIGAlgawan  17:43+1:3517:45+1:472m--159.554152mNRAlgawan, Uttar Pradesh
13/==/AJIAnjhi ShahabadX  17:52+1:4717:54+1:502m--165.864148mNRAnjhi Shahabad, Uttar Pradesh
14/==/TDPTodarpur  18:02+1:5218:04+1:522m--174.265147mNRSH 25, Uttar Pradesh
15/==/BEGBehtagokulXO  18:11 18:10+1:5418:13 18:12+2:012m--180.759152mNRBehtagokul, Uttar Pradesh
16/==/KUFKaurha  18:22 18:21+2:0218:24 18:23+2:082m--189.656148mNRSH 25, Uttar Pradesh
17/==/HRIHardoi (5)X  18:33 18:32+1:5618:35 18:34+2:042m3197.945146mNRHardoi, Uttar Pradesh
18/==/KARKarnaX  18:48 18:47+2:2218:50 18:49+2:252m--1107.856143mNRHardoi, Uttar Pradesh
19/==/MSTMasit  18:58 18:57+2:2219:00 18:59+2:222m--1115.352141mNRSH 25, Uttar Pradesh
20/==/BGHBaghauliX  19:08 19:07+2:2219:10 19:09+2:332m--1122.252141mNRsharda nehar, Uttar Pradesh
21/==/BLMBalamau Junction (4)X  19:21 19:19+2:3919:23 19:21+2:402m--1131.052139mNRBalamau, Uttar Pradesh
22/==/DLQDalelnagarX  19:33 19:31+2:3919:35 19:33+2:382m--1139.648136mNRSH 25, Uttar Pradesh
23/==/UTAUmar TaliX  19:42 19:41+2:3819:44 19:43+2:432m--1146.040135mNRHardoi, Uttar Pradesh
24/==/SANSandila (3)X  19:51+2:4319:53+2:502m--1151.360132mNRSandila, Uttar Pradesh
25/==/RBDRahimabadX  20:03 20:04+2:5120:05 20:06+2:522m--1162.351132mNRSH 25, Uttar Pradesh
26/==/DILDilawarnagarX  20:13 20:15+2:5320:15 20:17+2:562m--1169.943133mNRSH 25, Uttar Pradesh
27/==/MLDMalihabad  20:20 20:25+2:5920:24 20:27+3:044 2m--1175.658130mNRMalihabad, Uttar Pradesh
28/==/KKJKakori (3)XO  20:33 20:37+2:5520:35 20:39+3:032m--1185.26129mNRSH 25, Uttar Pradesh
29/==/LKOLucknow Charbagh NR (9)X  23:00 23:15+1:2323:15 23:25+1:2715 10m51199.845124mNRLucknow 226004, Uttar Pradesh
30/==/BBKBarabanki Junction (4)X  23:55 00:03+1:5123:57 00:05+1:562m32228.360124mNRPin-225001, Uttar Pradesh
31|--|DYDDaryabad  00:28 00:43+2:0200:30 00:45+2:032m--2266.458116mNRFaizabad Rd, Uttar Pradesh
32|--|RDLRudauli (2)  00:48 01:09+2:0300:50 01:11+2:042m--2289.562112mNRRudauli, Uttar Pradesh
33|--|FDFaizabad Junction (5)X  01:48+1:5901:53+2:055m12327.627104mNRFaizabad, Uttar Pradesh
34|--|AYAyodhya Junction (3)X  02:08+2:2402:10+2:252m12334.34098mNRAyodhya, Uttar Pradesh
35|--|GGJGoshainGanj (3)  02:58+2:1603:00+2:172m--2366.06798mNRGoshainganj, Uttar Pradesh
36|--|ABPAkbarpur Junction (2)  03:20+2:2503:22+2:292m--2388.27692mNRAkbarpur, Uttar Pradesh
37|--|MLPRMalipur (2)  03:37+2:2803:39+2:302m--2407.34792mNRMalipur, Uttar Pradesh
38|--|SHGShahganj Junction (4)X  04:11+2:4504:15+2:454m--2432.35390mNRShahganj, Uttar Pradesh
39|--|KSKheta Sarai (1)  04:27+2:3804:29+2:382m--2443.07288mNRKheta Sarai, Uttar Pradesh
40|--|JNUJaunpur Junction (5)  04:48+2:4304:50+2:442m--2465.63283mNRJaunpur, Uttar Pradesh
41|--|ZBDZafarabad Junction (4)X  05:02+2:4305:04+2:422m--2472.13683mNRNational Highway 56, Uttar Pradesh
42/==/KSFKhalispur (2)  05:43+2:2105:44+2:211m--2495.47083mNRPhulpur, Uttar Pradesh
43/==/BTPBabatpur (2)X  05:52+2:3305:54+2:332m--2504.82084mNRSatomahua-Mangari Rd, Uttar Pradesh
44/==/BSBVaranasi Junction (9)•  06:50+2:04-82523.3-82mNRVaranasi 221002, Uttar Pradesh
Scroll to Top
Scroll to Bottom


Go to Mobile site